Weather at Dorans Airstrip

Public forecast

Using degrees Celsius for public forecast. Weather courtesy of forecast.io.

Closest aviation weather report (METAR) to Dorans Airstrip

Report is more than 6 hours old.

Closest report is Casement Air Base, 45.8 nm (84.9 km) ESE.

2022/11/14 15:30 (retrieved 2 years ago)

EIME 141530Z 18011KT 9999 FEW036 10/05 Q1001

Closest aviation forecast (TAF) to Dorans Airstrip

Forecast is more than 12 hours old.

Closest forecast is Ireland West Knock Airport, 46.8 nm (86.7 km) WNW.

2023/02/22 18:10 (retrieved 1 year ago)

TAF EIKN 221700Z 2218/2318 35015KT 9999 SCT015 BKN030 TEMPO 2218/2219 35017G28KT -SHRA SCT018CB BECMG 2301/2303 32005KT BECMG 2306/2308 VRB03KT PROB40 TEMPO 2311/2314 -RA BKN012 BECMG 2311/2313 32010KT